Time;durP1;ratioP1;P1;durP2;ratioP2;P2;SDS_P1;SDS_P2;PMS_P1;PMS_P2;Temp;Humidity;BMP_temperature;BMP_pressure;BME280_temperature;BME280_humidity;BME280_pressure;Samples;Min_cycle;Max_cycle;Signal;HPM_P1;HPM_P2
2022/01/08 00:01:59;;;;;;;2.35;0.60;;;2.80;99.90;;;;;;5111954;27;20078;-84
2022/01/08 00:04:25;;;;;;;4.55;0.98;;;1.70;99.90;;;;;;5110344;27;20038;-84
2022/01/08 00:06:51;;;;;;;1.85;0.90;;;1.60;99.90;;;;;;5129752;27;20039;-84
2022/01/08 00:09:17;;;;;;;3.38;0.80;;;2.10;99.90;;;;;;5093469;27;20046;-83
2022/01/08 00:11:42;;;;;;;5.63;1.00;;;1.70;99.90;;;;;;5110583;27;20043;-83
2022/01/08 00:14:10;;;;;;;2.45;0.77;;;1.70;99.90;;;;;;5111258;27;20049;-84
2022/01/08 00:16:37;;;;;;;4.35;0.98;;;1.70;99.90;;;;;;5076598;27;20130;-84
2022/01/08 00:19:07;;;;;;;1.92;0.63;;;2.90;99.90;;;;;;5111431;27;20062;-82
2022/01/08 00:21:33;;;;;;;6.03;0.90;;;2.20;99.90;;;;;;5128279;27;20035;-82
2022/01/08 00:24:00;;;;;;;4.45;0.98;;;1.70;99.90;;;;;;5110828;27;20043;-82
2022/01/08 00:26:26;;;;;;;4.45;0.98;;;1.70;99.90;;;;;;5092885;27;20050;-82
2022/01/08 00:28:51;;;;;;;3.35;0.98;;;1.70;99.90;;;;;;5091631;27;20051;-82
2022/01/08 00:31:17;;;;;;;3.88;0.75;;;1.70;99.90;;;;;;5109564;27;20047;-82
2022/01/08 00:33:43;;;;;;;2.47;0.57;;;1.80;99.90;;;;;;5093093;27;20130;-82
2022/01/08 00:36:11;;;;;;;3.47;1.10;;;1.80;99.90;;;;;;5109934;27;20394;-82
2022/01/08 00:38:37;;;;;;;5.82;0.73;;;1.80;99.90;;;;;;5106702;27;20043;-83
2022/01/08 00:41:03;;;;;;;5.35;1.05;;;3.70;99.90;;;;;;5093420;27;20050;-82
2022/01/08 00:43:28;;;;;;;2.10;0.75;;;2.70;99.90;;;;;;5073901;27;20066;-82
2022/01/08 00:45:54;;;;;;;7.45;1.15;;;3.60;99.90;;;;;;5076512;27;20039;-82
2022/01/08 00:48:20;;;;;;;3.50;0.80;;;2.60;99.90;;;;;;5076370;27;20087;-83
2022/01/08 00:50:46;;;;;;;8.57;1.10;;;1.90;99.90;;;;;;5108793;27;20043;-82
2022/01/08 00:53:11;;;;;;;8.85;0.90;;;1.90;99.90;;;;;;5092992;27;20064;-82
2022/01/08 00:55:37;;;;;;;2.78;0.90;;;1.90;99.90;;;;;;5075673;27;20035;-82
2022/01/08 00:58:03;;;;;;;3.13;0.90;;;1.80;99.90;;;;;;5093826;27;20064;-82
2022/01/08 01:00:28;;;;;;;2.97;0.50;;;0.70;99.90;;;;;;5109446;27;20138;-81
2022/01/08 01:02:54;;;;;;;2.70;1.00;;;1.80;99.90;;;;;;5110255;27;20122;-82
2022/01/08 01:05:21;;;;;;;2.17;1.08;;;1.70;99.90;;;;;;5093276;27;20051;-82
2022/01/08 01:07:47;;;;;;;7.30;0.93;;;1.70;99.90;;;;;;5092697;27;20051;-82
2022/01/08 01:10:15;;;;;;;4.72;1.20;;;1.70;99.90;;;;;;5129216;27;20401;-82
2022/01/08 01:12:41;;;;;;;5.13;1.70;;;1.70;99.90;;;;;;5109231;27;20385;-82
2022/01/08 01:15:14;;;;;;;5.47;1.00;;;1.70;99.90;;;;;;5110320;27;20043;-82
2022/01/08 01:17:41;;;;;;;6.43;1.58;;;1.70;99.90;;;;;;5128226;27;20443;-81
2022/01/08 01:20:08;;;;;;;1.50;0.75;;;1.70;99.90;;;;;;5093265;28;20057;-82
2022/01/08 01:25:24;;;;;;;4.93;0.90;;;1.70;99.90;;;;;;5108711;27;20051;-81
2022/01/08 01:30:27;;;;;;;3.28;1.30;;;1.70;99.90;;;;;;5108885;28;20043;-81
2022/01/08 01:41:32;;;;;;;3.13;1.20;;;1.70;99.90;;;;;;5112543;28;20521;-81
2022/01/08 01:49:19;;;;;;;4.95;1.13;;;1.80;99.90;;;;;;5109975;28;20494;-82
2022/01/08 01:51:45;;;;;;;2.00;1.38;;;1.80;99.90;;;;;;5092182;28;20164;-81
2022/01/08 01:54:11;;;;;;;5.75;2.00;;;1.80;99.90;;;;;;5128123;28;20077;-81
2022/01/08 01:56:38;;;;;;;3.72;2.20;;;1.80;99.90;;;;;;5109152;28;20039;-81
2022/01/08 01:59:04;;;;;;;5.95;1.65;;;1.80;99.90;;;;;;5108718;28;20482;-81
2022/01/08 02:01:31;;;;;;;7.47;1.52;;;1.80;99.90;;;;;;5128314;28;20530;-81
2022/01/08 02:03:57;;;;;;;4.78;1.45;;;1.80;99.90;;;;;;5108423;27;20135;-81
2022/01/08 02:06:23;;;;;;;2.67;1.85;;;1.80;99.90;;;;;;5114157;27;20673;-81
2022/01/08 02:08:49;;;;;;;2.88;1.38;;;1.80;99.90;;;;;;5095534;27;20610;-81
2022/01/08 02:11:17;;;;;;;4.93;1.83;;;1.80;99.90;;;;;;5096084;27;20078;-81
2022/01/08 02:13:43;;;;;;;4.18;1.42;;;1.80;99.90;;;;;;5079596;27;20050;-81
2022/01/08 02:16:16;;;;;;;3.08;1.60;;;1.80;99.90;;;;;;5079081;27;20133;-82
2022/01/08 02:18:44;;;;;;;2.45;1.33;;;1.80;99.90;;;;;;5132659;27;20051;-82
2022/01/08 02:21:10;;;;;;;3.38;1.17;;;3.70;99.90;;;;;;5112811;27;20483;-82
2022/01/08 02:23:36;;;;;;;3.67;1.40;;;1.80;99.90;;;;;;5113552;27;20035;-82
2022/01/08 02:26:06;;;;;;;4.75;1.45;;;3.10;99.90;;;;;;5095621;27;20035;-81
2022/01/08 02:28:33;;;;;;;4.75;1.20;;;1.90;99.90;;;;;;5095617;27;20054;-81
2022/01/08 02:30:59;;;;;;;6.43;1.30;;;1.90;99.90;;;;;;5112914;27;20078;-81
2022/01/08 02:33:26;;;;;;;3.80;1.67;;;1.90;99.90;;;;;;5095220;27;20078;-81
2022/01/08 02:35:52;;;;;;;3.20;1.30;;;1.80;99.90;;;;;;5113487;27;20043;-82
2022/01/08 02:38:17;;;;;;;2.03;1.15;;;1.80;99.90;;;;;;5095044;27;20098;-82
2022/01/08 02:40:51;;;;;;;2.42;0.85;;;1.80;99.90;;;;;;5112937;27;20043;-81
2022/01/08 02:43:17;;;;;;;3.22;1.23;;;1.80;99.90;;;;;;5130721;27;20051;-81
2022/01/08 02:45:43;;;;;;;1.73;0.90;;;1.80;99.90;;;;;;5112547;27;20050;-81
2022/01/08 02:48:09;;;;;;;3.55;1.17;;;1.80;99.90;;;;;;5112632;27;20155;-81
2022/01/08 02:50:34;;;;;;;5.20;1.08;;;1.70;99.90;;;;;;5112225;27;20118;-81
2022/01/08 02:53:00;;;;;;;3.45;1.27;;;1.70;99.90;;;;;;5113213;27;20054;-81
2022/01/08 02:55:26;;;;;;;2.83;0.98;;;1.70;99.90;;;;;;5111642;27;20114;-81
2022/01/08 02:57:51;;;;;;;2.75;1.17;;;1.80;99.90;;;;;;5096338;27;20061;-81
2022/01/08 03:00:19;;;;;;;4.32;0.82;;;1.80;99.90;;;;;;5130573;27;20046;-81
2022/01/08 03:02:47;;;;;;;4.40;1.30;;;1.80;99.90;;;;;;5112271;27;20126;-81
2022/01/08 03:05:14;;;;;;;2.35;0.80;;;1.70;99.90;;;;;;5112339;27;20045;-81
2022/01/08 03:07:42;;;;;;;5.35;0.77;;;1.80;99.90;;;;;;5111229;27;20061;-81
2022/01/08 03:10:11;;;;;;;3.03;0.82;;;3.30;99.90;;;;;;5113196;27;20118;-81
2022/01/08 03:12:41;;;;;;;2.63;0.75;;;1.70;99.90;;;;;;5111335;27;20043;-81
2022/01/08 03:15:12;;;;;;;6.40;0.70;;;1.70;99.90;;;;;;5095814;27;20066;-81
2022/01/08 03:17:39;;;;;;;0.90;0.65;;;1.70;99.90;;;;;;5111705;27;20035;-81
2022/01/08 03:20:09;;;;;;;3.45;0.68;;;1.60;99.90;;;;;;5111567;27;20474;-81
2022/01/08 03:22:35;;;;;;;4.18;0.65;;;1.60;99.90;;;;;;5131257;27;20680;-81
2022/01/08 03:25:01;;;;;;;1.02;0.50;;;1.50;99.90;;;;;;5129437;27;20476;-81
2022/01/08 03:27:27;;;;;;;7.43;0.80;;;2.80;99.90;;;;;;5095698;27;20035;-82
2022/01/08 03:29:53;;;;;;;1.75;0.77;;;3.30;99.90;;;;;;5129352;27;20146;-81
2022/01/08 03:32:19;;;;;;;2.17;0.80;;;1.50;99.90;;;;;;5094770;27;20134;-82
2022/01/08 03:34:45;;;;;;;2.70;0.75;;;1.50;99.90;;;;;;5129938;27;20122;-81
2022/01/08 03:37:10;;;;;;;2.35;0.70;;;1.40;99.90;;;;;;5129969;27;20103;-81
2022/01/08 03:39:36;;;;;;;4.32;0.75;;;1.40;99.90;;;;;;5130240;27;20078;-82
2022/01/08 03:42:02;;;;;;;6.53;0.65;;;1.40;99.90;;;;;;5111033;27;20054;-82
2022/01/08 03:44:29;;;;;;;4.88;1.00;;;1.40;99.90;;;;;;5130921;27;20412;-82
2022/01/08 03:47:00;;;;;;;4.35;0.80;;;1.40;99.90;;;;;;5129369;27;20051;-82
2022/01/08 03:49:26;;;;;;;3.78;0.80;;;2.50;99.90;;;;;;5111406;27;20051;-82
2022/01/08 03:51:54;;;;;;;1.10;0.43;;;1.30;99.90;;;;;;5129798;27;20039;-82
2022/01/08 03:54:20;;;;;;;5.13;0.80;;;2.50;99.90;;;;;;5110951;27;20080;-82
2022/01/08 03:56:46;;;;;;;5.63;0.70;;;1.30;99.90;;;;;;5094910;27;20038;-82
2022/01/08 03:59:12;;;;;;;2.00;0.55;;;1.30;99.90;;;;;;5110384;27;20042;-82
2022/01/08 04:01:38;;;;;;;5.18;0.80;;;1.30;99.90;;;;;;5095177;27;20043;-82
2022/01/08 04:04:04;;;;;;;1.38;0.50;;;1.30;99.90;;;;;;5093266;27;20486;-82
2022/01/08 04:06:29;;;;;;;5.22;0.68;;;1.30;99.90;;;;;;5129693;27;20053;-82
2022/01/08 04:08:57;;;;;;;1.95;0.50;;;1.30;99.90;;;;;;5129376;27;20043;-82
2022/01/08 04:11:27;;;;;;;1.75;0.50;;;1.30;99.90;;;;;;5129243;27;20674;-82
2022/01/08 04:13:54;;;;;;;0.68;0.40;;;1.30;99.90;;;;;;5129773;27;20047;-82
2022/01/08 04:16:28;;;;;;;2.33;1.23;;;1.30;99.90;;;;;;5110059;27;20055;-82
2022/01/08 04:18:53;;;;;;;6.53;0.57;;;1.40;99.90;;;;;;5130554;27;20039;-82
2022/01/08 04:23:47;;;;;;;1.05;0.55;;;1.30;99.90;;;;;;5129466;27;20047;-83
2022/01/08 04:26:13;;;;;;;2.65;0.47;;;1.40;99.90;;;;;;5110517;27;20031;-83
2022/01/08 04:28:39;;;;;;;4.28;0.50;;;1.40;99.90;;;;;;5092225;27;20117;-82
2022/01/08 04:31:05;;;;;;;6.72;0.70;;;1.40;99.90;;;;;;5129698;27;20075;-82
2022/01/08 04:33:30;;;;;;;0.75;0.50;;;1.40;99.90;;;;;;5128593;27;20043;-82
2022/01/08 04:35:56;;;;;;;5.03;0.47;;;1.50;99.90;;;;;;5129966;27;20041;-82
2022/01/08 04:38:22;;;;;;;2.33;0.40;;;1.50;99.90;;;;;;5128442;27;20521;-82
2022/01/08 04:40:48;;;;;;;0.90;0.38;;;1.50;99.90;;;;;;5110326;27;20050;-83
2022/01/08 04:43:14;;;;;;;7.63;1.02;;;1.50;99.90;;;;;;5128834;27;20035;-82
2022/01/08 04:45:40;;;;;;;5.97;0.95;;;1.60;99.90;;;;;;5128839;27;20042;-82
2022/01/08 04:48:06;;;;;;;7.30;0.50;;;1.70;99.90;;;;;;5129030;27;20514;-82
2022/01/08 04:50:32;;;;;;;4.32;0.70;;;1.70;99.90;;;;;;5128477;27;20115;-83
2022/01/08 04:52:59;;;;;;;4.90;0.60;;;1.80;99.90;;;;;;5129679;27;20040;-83
2022/01/08 04:55:25;;;;;;;6.13;0.55;;;1.80;99.90;;;;;;5109447;27;20122;-82
2022/01/08 04:57:51;;;;;;;0.95;0.50;;;1.90;99.90;;;;;;5128780;27;20035;-83
2022/01/08 05:00:19;;;;;;;1.58;0.43;;;1.90;99.90;;;;;;5128813;27;20382;-82
2022/01/08 05:02:46;;;;;;;4.25;0.80;;;2.00;99.90;;;;;;5128024;27;20666;-82
2022/01/08 05:05:12;;;;;;;3.92;0.77;;;1.90;99.90;;;;;;5128926;27;20061;-83
2022/01/08 05:07:38;;;;;;;2.85;0.65;;;3.00;99.90;;;;;;5127847;27;20047;-82
2022/01/08 05:10:05;;;;;;;2.72;0.77;;;1.90;99.90;;;;;;5128981;27;20053;-82
2022/01/08 05:12:31;;;;;;;4.30;0.98;;;1.90;99.90;;;;;;5109308;27;20509;-82
2022/01/08 05:14:57;;;;;;;2.47;0.70;;;1.90;99.90;;;;;;5109753;27;20051;-82
2022/01/08 05:17:32;;;;;;;2.95;0.80;;;1.90;99.90;;;;;;5128116;27;20050;-82
2022/01/08 05:20:00;;;;;;;3.70;0.55;;;1.90;99.90;;;;;;5109449;27;20554;-82
2022/01/08 05:22:29;;;;;;;1.08;0.60;;;1.90;99.90;;;;;;5110453;28;20431;-82
2022/01/08 05:24:56;;;;;;;4.80;0.80;;;1.90;99.90;;;;;;5127802;27;20138;-82
2022/01/08 05:27:22;;;;;;;4.47;1.30;;;1.80;99.90;;;;;;5129014;27;20043;-82
2022/01/08 05:29:51;;;;;;;3.78;0.77;;;1.80;99.90;;;;;;5105699;28;20453;-82
2022/01/08 05:32:18;;;;;;;1.45;0.65;;;1.80;99.90;;;;;;5107877;28;20123;-82
2022/01/08 05:34:49;;;;;;;5.20;0.93;;;1.80;99.90;;;;;;5107743;28;20044;-82
2022/01/08 05:37:17;;;;;;;9.57;0.82;;;1.70;99.90;;;;;;5106044;28;20040;-82
2022/01/08 05:39:43;;;;;;;6.82;0.68;;;1.70;99.90;;;;;;5108196;28;20043;-82
2022/01/08 05:42:08;;;;;;;4.15;0.55;;;1.70;99.90;;;;;;5106484;28;20067;-82
2022/01/08 05:44:34;;;;;;;6.50;0.90;;;1.60;99.90;;;;;;5106496;28;20048;-82
2022/01/08 05:47:00;;;;;;;3.85;0.65;;;1.60;99.90;;;;;;5107073;28;20047;-83
2022/01/08 05:49:26;;;;;;;4.70;0.60;;;1.60;99.90;;;;;;5107616;28;20069;-82
2022/01/08 05:51:52;;;;;;;4.70;0.80;;;1.60;99.90;;;;;;5105883;28;20036;-82
2022/01/08 05:54:18;;;;;;;1.88;0.80;;;1.60;99.90;;;;;;5107195;28;20084;-82
2022/01/08 05:56:43;;;;;;;3.72;0.73;;;1.60;99.90;;;;;;5108612;28;20042;-82
2022/01/08 05:59:09;;;;;;;5.03;1.00;;;1.50;99.90;;;;;;5106664;28;20047;-82
2022/01/08 06:01:35;;;;;;;5.00;0.90;;;1.50;99.90;;;;;;5108004;28;20556;-82
2022/01/08 06:04:01;;;;;;;4.38;1.17;;;1.50;99.90;;;;;;5106995;28;20065;-83
2022/01/08 06:06:27;;;;;;;1.45;0.57;;;1.50;99.90;;;;;;5107488;28;20040;-82
2022/01/08 06:08:53;;;;;;;5.15;0.52;;;2.60;99.90;;;;;;5107218;28;20368;-82
2022/01/08 06:11:19;;;;;;;3.60;0.80;;;1.50;99.90;;;;;;5105749;28;20077;-82
2022/01/08 06:13:45;;;;;;;6.18;1.08;;;1.50;99.90;;;;;;5107943;28;20042;-83
2022/01/08 06:16:11;;;;;;;2.25;0.60;;;1.50;99.90;;;;;;5106969;28;20790;-82
2022/01/08 06:18:38;;;;;;;6.70;0.82;;;1.50;99.90;;;;;;5107629;28;20044;-82
2022/01/08 06:21:04;;;;;;;3.92;0.90;;;1.50;99.90;;;;;;5106650;28;20044;-82
2022/01/08 06:23:30;;;;;;;3.88;0.63;;;1.40;99.90;;;;;;5107270;28;20058;-82
2022/01/08 06:25:56;;;;;;;1.25;0.65;;;1.40;99.90;;;;;;5106779;28;20055;-82
2022/01/08 06:28:22;;;;;;;1.60;0.75;;;1.40;99.90;;;;;;5105195;28;20066;-82
2022/01/08 06:30:48;;;;;;;5.90;1.05;;;1.40;99.90;;;;;;5105700;28;20044;-82
2022/01/08 06:33:18;;;;;;;3.67;1.08;;;1.40;99.90;;;;;;5104738;28;20071;-82
2022/01/08 06:35:44;;;;;;;4.28;1.08;;;1.40;99.90;;;;;;5089708;28;20074;-83
2022/01/08 06:38:09;;;;;;;5.25;1.20;;;1.40;99.90;;;;;;5106410;28;20044;-83
2022/01/08 06:40:36;;;;;;;3.33;1.13;;;1.40;99.90;;;;;;5107093;28;20044;-82
2022/01/08 06:43:01;;;;;;;3.83;1.30;;;1.40;99.90;;;;;;5106566;28;20471;-82
2022/01/08 06:45:27;;;;;;;4.28;1.83;;;1.30;99.90;;;;;;5105277;28;20043;-82
2022/01/08 06:47:53;;;;;;;5.68;1.50;;;1.30;99.90;;;;;;5106003;28;20086;-83
2022/01/08 06:50:19;;;;;;;3.20;1.40;;;1.40;99.90;;;;;;5104608;28;20092;-83
2022/01/08 06:52:44;;;;;;;4.28;1.55;;;1.30;99.90;;;;;;5109438;28;20123;-81
2022/01/08 06:55:10;;;;;;;5.78;1.73;;;1.30;99.90;;;;;;5109923;28;20479;-81
2022/01/08 06:57:36;;;;;;;7.28;2.13;;;1.30;99.90;;;;;;5092095;28;20511;-81
2022/01/08 07:00:04;;;;;;;3.70;1.70;;;1.30;99.90;;;;;;5108741;28;20036;-81
2022/01/08 07:02:30;;;;;;;6.38;1.95;;;1.30;99.90;;;;;;5108809;28;20134;-81
2022/01/08 07:04:56;;;;;;;9.57;2.50;;;1.30;99.90;;;;;;5109632;28;20427;-81
2022/01/08 07:07:24;;;;;;;7.75;2.85;;;1.30;99.90;;;;;;5108312;28;20487;-81
2022/01/08 07:09:51;;;;;;;6.05;2.53;;;1.20;99.90;;;;;;5109470;28;20054;-82
2022/01/08 07:12:16;;;;;;;11.00;3.15;;;1.20;99.90;;;;;;5109434;28;20138;-82
2022/01/08 07:14:42;;;;;;;5.43;2.30;;;1.20;99.90;;;;;;5108798;28;20130;-81
2022/01/08 07:17:08;;;;;;;6.28;2.08;;;1.20;99.90;;;;;;5108774;28;20149;-82
2022/01/08 07:19:34;;;;;;;10.00;2.53;;;2.80;99.90;;;;;;5091174;28;20425;-82
2022/01/08 07:22:00;;;;;;;7.15;2.33;;;0.30;99.90;;;;;;5092080;28;20066;-82
2022/01/08 07:24:26;;;;;;;10.40;2.38;;;1.30;99.90;;;;;;5109356;28;20075;-82
2022/01/08 07:26:52;;;;;;;5.63;2.55;;;1.30;99.90;;;;;;5109409;28;20153;-83
2022/01/08 07:29:18;;;;;;;12.07;2.67;;;1.30;99.90;;;;;;5107468;28;20059;-82
2022/01/08 07:31:43;;;;;;;9.00;2.78;;;1.30;99.90;;;;;;5108729;28;20051;-81
2022/01/08 07:34:09;;;;;;;11.27;3.40;;;2.40;99.90;;;;;;5109476;28;20035;-82
2022/01/08 07:36:35;;;;;;;4.07;2.53;;;1.50;99.90;;;;;;5107997;28;20094;-81
2022/01/08 07:39:00;;;;;;;8.77;3.10;;;3.10;99.90;;;;;;5108516;28;20061;-83
2022/01/08 07:41:26;;;;;;;10.02;2.58;;;1.30;99.90;;;;;;5107415;28;20040;-81
2022/01/08 07:43:52;;;;;;;8.73;2.95;;;1.30;99.90;;;;;;5109087;28;20077;-81
2022/01/08 07:46:17;;;;;;;7.15;2.92;;;1.30;99.90;;;;;;5090304;28;20042;-82
2022/01/08 07:48:43;;;;;;;9.93;3.22;;;1.30;99.90;;;;;;5108097;28;20048;-82
2022/01/08 07:51:09;;;;;;;10.63;3.08;;;1.30;99.90;;;;;;5107571;28;20142;-82
2022/01/08 07:53:35;;;;;;;5.88;2.33;;;1.30;99.90;;;;;;5109393;28;20051;-83
2022/01/08 07:56:01;;;;;;;12.27;2.22;;;2.10;99.90;;;;;;5108254;28;20040;-82
2022/01/08 07:58:26;;;;;;;7.05;2.40;;;1.30;99.90;;;;;;5107105;28;20039;-83
2022/01/08 08:00:53;;;;;;;9.30;2.15;;;1.30;99.90;;;;;;5108284;28;20131;-83
2022/01/08 08:03:20;;;;;;;10.80;4.07;;;1.30;99.90;;;;;;5089622;28;20047;-81
2022/01/08 08:05:45;;;;;;;14.43;3.00;;;1.30;99.90;;;;;;5108302;28;20048;-82
2022/01/08 08:08:16;;;;;;;10.13;2.20;;;1.30;99.90;;;;;;5107171;28;20376;-80
2022/01/08 08:10:42;;;;;;;11.80;2.20;;;1.40;99.90;;;;;;5107667;28;20051;-82
2022/01/08 08:13:08;;;;;;;8.90;2.33;;;1.40;99.90;;;;;;5109222;28;20405;-82
2022/01/08 08:15:33;;;;;;;6.63;2.47;;;1.40;99.90;;;;;;5108002;28;20047;-82
2022/01/08 08:17:59;;;;;;;14.55;4.18;;;1.40;99.90;;;;;;5109544;28;20044;-81
2022/01/08 08:20:25;;;;;;;7.50;2.33;;;1.40;99.90;;;;;;5106883;28;20047;-82
2022/01/08 08:22:50;;;;;;;6.82;2.15;;;1.40;99.90;;;;;;5107765;28;20192;-83
2022/01/08 08:25:16;;;;;;;7.43;1.75;;;1.60;99.90;;;;;;5108155;28;20039;-83
2022/01/08 08:27:43;;;;;;;6.68;2.92;;;1.50;99.90;;;;;;5107508;27;20055;-83
2022/01/08 08:30:09;;;;;;;5.38;1.95;;;1.60;99.90;;;;;;5111266;27;20125;-84
2022/01/08 08:32:35;;;;;;;11.43;2.63;;;1.60;99.90;;;;;;5110528;27;20460;-83
2022/01/08 08:35:01;;;;;;;6.70;2.13;;;1.60;99.90;;;;;;5129964;27;20466;-82
2022/01/08 08:37:27;;;;;;;7.40;2.65;;;1.70;99.90;;;;;;5109719;27;20477;-81
2022/01/08 08:39:53;;;;;;;4.43;2.17;;;1.80;99.90;;;;;;5110802;27;20145;-83
2022/01/08 08:42:19;;;;;;;7.38;2.05;;;2.30;99.90;;;;;;5093323;27;20082;-83
2022/01/08 08:44:44;;;;;;;10.20;2.67;;;1.90;99.90;;;;;;5110405;27;20403;-84
2022/01/08 08:47:10;;;;;;;18.73;2.35;;;1.90;99.90;;;;;;5128765;27;20508;-84
2022/01/08 08:49:36;;;;;;;4.97;2.25;;;2.90;99.90;;;;;;5109885;27;20043;-82
2022/01/08 08:52:02;;;;;;;9.90;3.40;;;2.00;99.90;;;;;;5129441;27;20082;-84
2022/01/08 08:54:27;;;;;;;5.88;2.45;;;2.00;99.90;;;;;;5109310;27;20049;-82
2022/01/08 08:56:53;;;;;;;9.68;2.33;;;2.10;99.90;;;;;;5110765;27;20137;-82
2022/01/08 08:59:19;;;;;;;15.02;2.35;;;2.00;99.90;;;;;;5128047;27;20039;-83
2022/01/08 09:01:45;;;;;;;5.80;2.17;;;2.10;99.90;;;;;;5109797;27;20039;-84
2022/01/08 09:04:10;;;;;;;8.77;2.17;;;2.10;99.90;;;;;;5128503;27;20050;-82
2022/01/08 09:06:36;;;;;;;7.90;1.92;;;2.10;99.90;;;;;;5092776;27;20479;-83
2022/01/08 09:09:03;;;;;;;8.57;2.17;;;2.20;99.90;;;;;;5110823;27;20043;-84
2022/01/08 09:11:29;;;;;;;10.43;2.83;;;2.10;99.90;;;;;;5109331;27;20043;-83
2022/01/08 09:13:55;;;;;;;7.60;2.30;;;2.20;99.90;;;;;;5128710;27;20125;-82
2022/01/08 09:16:21;;;;;;;4.60;1.90;;;2.60;99.90;;;;;;5109785;27;20059;-82
2022/01/08 09:18:47;;;;;;;7.15;2.08;;;2.20;99.90;;;;;;5110567;27;20474;-80
2022/01/08 09:21:14;;;;;;;13.65;2.47;;;2.60;99.90;;;;;;5109899;27;20043;-82
2022/01/08 09:23:40;;;;;;;6.18;2.92;;;2.30;99.90;;;;;;5092723;28;20039;-82
2022/01/08 09:26:06;;;;;;;9.48;2.13;;;2.40;99.90;;;;;;5110205;28;20050;-81
2022/01/08 09:28:32;;;;;;;9.52;2.15;;;2.40;99.90;;;;;;5108600;27;20052;-81
2022/01/08 09:30:59;;;;;;;6.35;2.05;;;2.40;99.90;;;;;;5129217;27;20069;-80
2022/01/08 09:33:25;;;;;;;7.75;2.00;;;2.60;99.90;;;;;;5108909;27;20047;-81
2022/01/08 09:35:52;;;;;;;10.38;2.03;;;2.60;99.90;;;;;;5109765;28;20126;-81
2022/01/08 09:38:19;;;;;;;11.32;2.40;;;2.70;99.90;;;;;;5109226;28;20043;-81
2022/01/08 09:40:45;;;;;;;4.10;1.65;;;2.70;99.90;;;;;;5109157;28;20118;-84
2022/01/08 09:43:10;;;;;;;10.65;2.33;;;2.10;99.90;;;;;;5128364;28;20122;-84
2022/01/08 09:45:36;;;;;;;6.97;1.75;;;2.80;99.90;;;;;;5108432;28;20521;-85
2022/01/08 09:48:02;;;;;;;14.30;2.28;;;2.80;99.90;;;;;;5110152;28;20122;-83
2022/01/08 09:50:28;;;;;;;11.70;1.83;;;2.80;99.90;;;;;;5127276;28;20607;-83
2022/01/08 09:52:57;;;;;;;7.07;1.83;;;2.80;99.90;;;;;;5092878;28;20114;-80
2022/01/08 09:55:27;;;;;;;10.02;2.15;;;2.80;99.90;;;;;;5076189;28;20067;-84
2022/01/08 09:57:55;;;;;;;7.70;2.22;;;2.80;99.90;;;;;;5075113;27;20047;-81
2022/01/08 10:00:22;;;;;;;5.07;1.75;;;3.30;99.90;;;;;;5128319;28;20075;-80
2022/01/08 10:02:49;;;;;;;8.65;1.42;;;3.00;99.90;;;;;;5108280;28;20047;-80
2022/01/08 10:05:16;;;;;;;6.50;1.60;;;3.10;99.90;;;;;;5093009;28;20130;-80
2022/01/08 10:07:43;;;;;;;7.20;1.90;;;3.10;99.90;;;;;;5108864;28;20076;-80
2022/01/08 10:10:15;;;;;;;13.95;2.30;;;3.20;99.90;;;;;;5127587;28;20118;-81
2022/01/08 10:12:55;;;;;;;4.82;1.90;;;3.30;99.90;;;;;;5127388;28;20550;-81
2022/01/08 10:18:29;;;;;;;12.00;2.45;;;3.40;99.90;;;;;;5128258;28;20073;-80
2022/01/08 10:21:20;;;;;;;4.60;1.63;;;3.50;99.90;;;;;;5109092;28;20053;-81
2022/01/08 10:23:57;;;;;;;5.63;1.67;;;3.40;99.90;;;;;;5108619;28;20075;-81
2022/01/08 10:26:30;;;;;;;3.50;1.27;;;3.50;99.90;;;;;;5129506;27;20054;-81
2022/01/08 10:29:01;;;;;;;7.72;1.50;;;3.50;99.90;;;;;;5130623;27;20051;-80
2022/01/08 10:31:45;;;;;;;6.43;1.73;;;3.50;99.90;;;;;;5112984;27;20058;-77
2022/01/08 10:34:14;;;;;;;8.63;1.92;;;3.60;99.90;;;;;;5131757;27;20133;-80
2022/01/08 10:36:42;;;;;;;9.77;1.73;;;3.60;99.90;;;;;;5131000;27;20062;-80
2022/01/08 10:39:10;;;;;;;11.57;1.92;;;2.30;99.90;;;;;;5132364;27;20398;-79
2022/01/08 10:41:44;;;;;;;10.98;1.75;;;3.60;99.90;;;;;;5130124;27;20047;-81
2022/01/08 10:44:25;;;;;;;4.93;1.77;;;3.60;99.90;;;;;;5131364;27;20621;-80
2022/01/08 10:47:01;;;;;;;11.45;2.20;;;3.90;99.90;;;;;;5131219;27;20054;-82
2022/01/08 10:49:38;;;;;;;4.82;1.98;;;3.60;99.90;;;;;;5130415;27;20514;-81
2022/01/08 10:52:06;;;;;;;8.35;1.38;;;3.60;99.90;;;;;;5113524;27;20092;-81
2022/01/08 10:54:37;;;;;;;9.02;2.45;;;3.60;99.90;;;;;;5111859;27;20039;-80
2022/01/08 10:57:08;;;;;;;6.15;1.70;;;5.00;99.90;;;;;;5113140;27;20434;-80
2022/01/08 10:59:36;;;;;;;6.43;1.83;;;3.60;99.90;;;;;;5130944;27;20043;-79
2022/01/08 11:02:17;;;;;;;9.23;2.10;;;3.60;99.90;;;;;;5130430;27;20086;-79
2022/01/08 11:04:52;;;;;;;4.88;1.80;;;3.60;99.90;;;;;;5131913;27;20467;-81
2022/01/08 11:07:28;;;;;;;14.50;2.33;;;3.60;99.90;;;;;;5130187;27;20051;-85
2022/01/08 11:10:04;;;;;;;6.90;2.65;;;3.50;99.90;;;;;;5131463;27;20050;-84
2022/01/08 11:12:43;;;;;;;10.23;2.40;;;3.50;99.90;;;;;;5131091;27;20046;-82
2022/01/08 11:18:00;;;;;;;7.90;2.58;;;3.50;99.90;;;;;;5113072;27;20051;-81
2022/01/08 11:20:28;;;;;;;6.65;2.63;;;3.50;99.90;;;;;;5130029;27;20414;-81
2022/01/08 11:22:57;;;;;;;5.50;2.90;;;4.30;99.90;;;;;;5130309;27;20065;-79
2022/01/08 11:25:35;;;;;;;7.65;2.55;;;5.50;99.90;;;;;;5095239;27;20522;-80
2022/01/08 11:28:05;;;;;;;9.70;2.88;;;3.60;99.90;;;;;;5129389;27;20053;-80
2022/01/08 11:30:43;;;;;;;5.20;2.20;;;3.80;99.90;;;;;;5112879;27;20394;-80
2022/01/08 11:33:22;;;;;;;13.88;2.53;;;3.60;99.90;;;;;;5111377;27;20051;-80
2022/01/08 11:35:49;;;;;;;9.60;2.80;;;3.70;99.90;;;;;;5094628;27;20039;-79
2022/01/08 11:38:19;;;;;;;11.57;2.58;;;4.10;99.90;;;;;;5110904;27;20046;-79
2022/01/08 11:40:46;;;;;;;5.90;2.45;;;4.90;99.90;;;;;;5129338;27;20043;-80
2022/01/08 11:43:15;;;;;;;7.20;2.78;;;3.70;99.90;;;;;;5111911;27;20039;-80
2022/01/08 11:45:57;;;;;;;7.35;2.58;;;3.80;99.90;;;;;;5110822;27;20047;-81
2022/01/08 11:48:33;;;;;;;12.85;3.15;;;3.80;99.90;;;;;;5130321;27;20133;-80
2022/01/08 11:51:01;;;;;;;13.80;3.45;;;3.80;99.90;;;;;;5129816;27;20122;-81
2022/01/08 11:53:30;;;;;;;9.63;3.03;;;3.90;99.90;;;;;;5129392;27;20035;-80
2022/01/08 11:55:59;;;;;;;13.70;3.85;;;3.90;99.90;;;;;;5112010;27;20502;-80
2022/01/08 11:58:31;;;;;;;7.60;3.50;;;3.90;99.90;;;;;;5128942;27;20047;-81
2022/01/08 12:00:59;;;;;;;18.90;4.32;;;3.90;99.90;;;;;;5130495;27;20122;-79
2022/01/08 12:03:39;;;;;;;16.58;3.47;;;3.90;99.90;;;;;;5129165;27;20039;-80
2022/01/08 12:06:26;;;;;;;6.78;2.85;;;4.00;99.90;;;;;;5129229;27;20639;-79
2022/01/08 12:09:21;;;;;;;9.02;3.83;;;3.90;99.90;;;;;;5130545;27;20075;-81
2022/01/08 12:11:47;;;;;;;7.85;3.50;;;3.90;99.90;;;;;;5129086;27;20104;-80
2022/01/08 12:14:14;;;;;;;8.88;3.80;;;3.90;99.90;;;;;;5129358;27;20046;-82
2022/01/08 12:16:42;;;;;;;9.15;3.33;;;4.00;99.90;;;;;;5129680;27;20043;-81
2022/01/08 12:19:26;;;;;;;6.30;3.10;;;5.70;99.90;;;;;;5110804;27;20043;-81
2022/01/08 12:21:52;;;;;;;6.82;2.75;;;3.90;99.90;;;;;;5130208;27;20047;-81
2022/01/08 12:24:27;;;;;;;13.25;4.15;;;3.90;99.90;;;;;;5110160;27;20093;-82
2022/01/08 12:26:58;;;;;;;9.00;3.50;;;4.00;99.90;;;;;;5129318;27;20054;-83
2022/01/08 12:29:43;;;;;;;11.10;3.80;;;3.10;99.90;;;;;;5089416;28;20051;-83
2022/01/08 12:32:36;;;;;;;14.93;4.95;;;4.00;99.90;;;;;;5108290;28;20055;-83
2022/01/08 12:35:17;;;;;;;11.15;4.65;;;4.00;99.90;;;;;;5107808;28;20052;-82
2022/01/08 12:37:45;;;;;;;11.23;4.63;;;4.10;99.90;;;;;;5108062;28;20091;-83
2022/01/08 12:40:30;;;;;;;7.70;3.97;;;4.50;99.90;;;;;;5108117;28;20541;-83
2022/01/08 12:42:56;;;;;;;9.35;4.45;;;4.10;99.90;;;;;;5109035;28;20394;-83
2022/01/08 12:45:32;;;;;;;14.80;4.65;;;4.10;99.90;;;;;;5106308;28;20165;-83
2022/01/08 12:48:01;;;;;;;10.18;5.18;;;4.20;99.90;;;;;;5109475;28;20421;-84
2022/01/08 12:50:36;;;;;;;10.52;4.53;;;4.10;99.90;;;;;;5108693;28;20048;-83
2022/01/08 12:53:08;;;;;;;12.20;4.50;;;4.10;99.90;;;;;;5108356;28;20505;-82
2022/01/08 12:55:53;;;;;;;9.05;4.93;;;4.10;99.90;;;;;;5108713;28;20051;-82
2022/01/08 12:58:30;;;;;;;11.40;5.30;;;4.10;99.90;;;;;;5107628;28;20054;-81
2022/01/08 13:01:20;;;;;;;11.90;5.65;;;4.10;99.90;;;;;;5109160;28;20044;-83
2022/01/08 13:03:55;;;;;;;11.18;4.70;;;5.60;99.90;;;;;;5107757;28;20047;-83
2022/01/08 13:06:26;;;;;;;8.05;5.40;;;4.10;99.90;;;;;;5089770;28;20051;-81
2022/01/08 13:08:54;;;;;;;16.98;5.90;;;4.10;99.90;;;;;;5107665;28;20047;-80
2022/01/08 13:11:28;;;;;;;12.63;6.43;;;4.20;99.90;;;;;;5105698;28;20097;-80
2022/01/08 13:14:10;;;;;;;11.63;5.68;;;4.20;99.90;;;;;;5108462;28;20043;-81
2022/01/08 13:16:37;;;;;;;16.23;5.78;;;4.20;99.90;;;;;;5108238;27;20043;-81
2022/01/08 13:19:14;;;;;;;12.00;5.90;;;4.20;99.90;;;;;;5107593;28;20399;-80
2022/01/08 13:21:53;;;;;;;12.27;5.22;;;4.20;99.90;;;;;;5108920;28;20390;-81
2022/01/08 13:24:24;;;;;;;10.82;6.28;;;4.20;99.90;;;;;;5107553;28;20398;-81
2022/01/08 13:26:57;;;;;;;10.07;6.72;;;4.20;99.90;;;;;;5106279;28;20047;-80
2022/01/08 13:29:23;;;;;;;11.85;6.35;;;4.20;99.90;;;;;;5118051;27;20141;-82